Terminal Aerodrome Forecast
Issued by NWS

Home | Current Version | Previous Version | Graphics & Text | Print | Product List | Glossary On
Versions: 1 2 3 4 5 6 7 8 9 10 11 12 13 14 15 16 17 18 19 20
563
FTUS43 KMPX 261401 AAA
TAFRNH
TAF AMD
KRNH 261401Z 2614/2712 VRB04KT P6SM -DZ VCSH BKN012
     FM261600 36004KT P6SM SCT018 BKN025
     FM262000 32005KT P6SM BKN150
     FM270000 36003KT P6SM FEW050=

USA.gov is the U.S. government's official web portal to all federal, state and local government web resources and services.